createdAt,value
2022-11-02T00:01:55.460Z,90.87
2022-11-02T00:03:59.550Z,91.18
2022-11-02T00:06:04.852Z,90.97
2022-11-02T00:08:08.389Z,91.05
2022-11-02T00:10:12.689Z,90.78
2022-11-02T00:12:16.500Z,90.89
2022-11-02T00:14:20.294Z,91.23
2022-11-02T00:16:25.607Z,91.23
2022-11-02T00:18:29.665Z,90.92
2022-11-02T00:20:34.032Z,91.10
2022-11-02T00:22:40.992Z,91.17
2022-11-02T00:24:44.975Z,91.00
2022-11-02T00:26:48.587Z,90.85
2022-11-02T00:28:52.446Z,91.17
2022-11-02T00:30:56.335Z,90.95
2022-11-02T00:32:59.873Z,91.02
2022-11-02T00:35:03.642Z,91.09
2022-11-02T00:37:07.808Z,90.17
2022-11-02T00:39:12.894Z,90.27
2022-11-02T00:41:17.183Z,90.64
2022-11-02T00:43:20.955Z,90.16
2022-11-02T00:45:25.386Z,89.90
2022-11-02T00:47:29.714Z,89.99
2022-11-02T00:49:33.660Z,89.83
2022-11-02T00:51:38.016Z,89.82
2022-11-02T00:53:42.134Z,89.72
2022-11-02T00:55:47.811Z,89.54
2022-11-02T00:57:52.122Z,89.76
2022-11-02T00:59:55.874Z,88.80
2022-11-02T01:01:59.657Z,88.99
2022-11-02T01:04:04.508Z,89.38
2022-11-02T01:06:13.994Z,88.61
2022-11-02T01:08:17.717Z,88.71
2022-11-02T01:10:21.830Z,88.91
2022-11-02T01:12:27.202Z,88.60
2022-11-02T01:14:31.066Z,88.67
2022-11-02T01:16:35.088Z,88.60
2022-11-02T01:18:39.754Z,88.11
2022-11-02T01:20:43.428Z,88.64
2022-11-02T01:22:48.218Z,88.57
2022-11-02T01:24:52.117Z,88.63
2022-11-02T01:26:56.386Z,88.60
2022-11-02T01:29:01.934Z,87.82
2022-11-02T01:31:08.786Z,87.93
2022-11-02T01:33:13.635Z,87.83
2022-11-02T01:35:17.648Z,87.65
2022-11-02T01:37:21.391Z,88.07
2022-11-02T01:39:24.776Z,87.87
2022-11-02T01:41:28.088Z,87.53
2022-11-02T01:43:34.350Z,87.52
2022-11-02T01:45:39.091Z,86.96
2022-11-02T01:47:45.599Z,86.50
2022-11-02T01:49:52.312Z,86.21
2022-11-02T01:52:01.178Z,86.18
2022-11-02T01:54:08.827Z,86.20
2022-11-02T01:56:16.244Z,86.08
2022-11-02T01:58:19.607Z,85.73
2022-11-02T02:00:23.344Z,85.14
2022-11-02T02:02:29.408Z,85.14
2022-11-02T02:04:34.517Z,84.89
2022-11-02T02:06:39.135Z,85.15
2022-11-02T02:08:46.472Z,84.87
2022-11-02T02:10:50.937Z,85.11
2022-11-02T02:12:54.595Z,85.14
2022-11-02T02:14:58.015Z,85.21
2022-11-02T02:17:15.838Z,84.61
2022-11-02T02:19:34.011Z,85.04
2022-11-02T02:21:48.844Z,85.13
2022-11-02T02:24:26.737Z,84.51
2022-11-02T02:26:51.905Z,85.32
2022-11-02T02:29:01.153Z,84.76
2022-11-02T02:31:15.499Z,84.40
2022-11-02T02:33:27.704Z,84.75
2022-11-02T02:35:36.871Z,84.53
2022-11-02T02:37:47.182Z,84.40
2022-11-02T02:39:55.519Z,84.42
2022-11-02T02:42:07.411Z,84.31
2022-11-02T02:44:17.534Z,83.98
2022-11-02T02:46:24.575Z,83.97
2022-11-02T02:48:28.885Z,84.22
2022-11-02T02:50:40.589Z,83.92
2022-11-02T02:52:48.313Z,84.47
2022-11-02T02:54:54.120Z,84.08
2022-11-02T02:57:03.487Z,83.91
2022-11-02T02:59:09.544Z,84.61
2022-11-02T03:01:16.356Z,84.28
2022-11-02T03:03:23.403Z,84.08
2022-11-02T03:05:28.256Z,84.55
2022-11-02T03:07:35.047Z,84.35
2022-11-02T03:09:48.778Z,84.38
2022-11-02T03:12:01.910Z,84.88
2022-11-02T03:14:23.264Z,84.41
2022-11-02T03:16:41.769Z,84.78
2022-11-02T03:18:52.812Z,84.99
2022-11-02T03:21:06.437Z,84.70
2022-11-02T03:23:14.019Z,84.92
2022-11-02T03:25:22.266Z,84.82
2022-11-02T03:27:36.376Z,85.54
2022-11-02T03:29:47.755Z,85.88
2022-11-02T03:31:59.647Z,85.95
2022-11-02T03:34:13.728Z,86.35
2022-11-02T03:36:21.943Z,86.11
2022-11-02T03:38:32.840Z,86.54
2022-11-02T03:40:42.286Z,86.42
2022-11-02T03:42:47.887Z,86.76
2022-11-02T03:44:58.118Z,86.16
2022-11-02T03:47:05.390Z,86.19
2022-11-02T03:49:13.890Z,85.95
2022-11-02T03:51:20.500Z,86.32
2022-11-02T03:53:46.124Z,86.36
2022-11-02T03:55:53.180Z,86.18
2022-11-02T03:57:56.598Z,86.01
2022-11-02T04:00:12.246Z,86.70
2022-11-02T04:02:22.378Z,86.44
2022-11-02T04:04:26.389Z,86.39
2022-11-02T04:06:29.907Z,86.66
2022-11-02T04:08:36.425Z,86.71
2022-11-02T04:10:57.144Z,86.44
2022-11-02T04:13:18.023Z,86.81
2022-11-02T04:15:21.515Z,87.18
2022-11-02T04:17:44.149Z,87.40
2022-11-02T04:19:51.139Z,87.55
2022-11-02T04:22:14.345Z,87.86
2022-11-02T04:24:37.194Z,87.31
2022-11-02T04:26:40.783Z,87.55
2022-11-02T04:28:44.335Z,87.96
2022-11-02T04:30:48.201Z,87.80
2022-11-02T04:33:11.101Z,87.71
2022-11-02T04:35:21.220Z,88.05
2022-11-02T04:37:38.307Z,87.95
2022-11-02T04:39:41.817Z,87.87
2022-11-02T04:41:44.223Z,87.65
2022-11-02T04:44:07.358Z,88.18
2022-11-02T04:46:12.053Z,88.52
2022-11-02T04:48:16.803Z,88.37
2022-11-02T04:50:20.642Z,88.76
2022-11-02T04:52:24.685Z,88.65
2022-11-02T04:54:28.229Z,88.48
2022-11-02T04:56:36.225Z,89.23
2022-11-02T04:58:39.779Z,88.41
2022-11-02T05:00:43.117Z,88.49
2022-11-02T05:02:48.972Z,88.59
2022-11-02T05:04:54.578Z,88.79
2022-11-02T05:07:01.476Z,88.84
2022-11-02T05:09:06.363Z,89.22
2022-11-02T05:11:11.301Z,88.63
2022-11-02T05:13:15.313Z,89.44
2022-11-02T05:15:19.099Z,89.24
2022-11-02T05:17:22.472Z,88.97
2022-11-02T05:19:25.999Z,90.21
2022-11-02T05:21:31.026Z,90.42
2022-11-02T05:23:34.830Z,90.78
2022-11-02T05:25:38.528Z,90.94
2022-11-02T05:29:46.394Z,92.27
2022-11-02T05:31:49.823Z,92.07
2022-11-02T05:33:53.088Z,92.12
2022-11-02T05:35:58.819Z,93.59
2022-11-02T05:38:03.962Z,93.81
2022-11-02T05:40:09.486Z,94.77
2022-11-02T05:42:13.723Z,95.63
2022-11-02T05:44:17.424Z,95.56
2022-11-02T05:46:21.354Z,96.53
2022-11-02T05:48:25.492Z,96.92
2022-11-02T05:50:29.402Z,97.30
2022-11-02T05:52:32.773Z,97.74
2022-11-02T05:54:37.514Z,98.05
2022-11-02T05:56:40.773Z,98.26
2022-11-02T05:58:44.168Z,99.39
2022-11-02T06:00:47.364Z,100.00
2022-11-02T06:02:50.868Z,100.00
2022-11-02T06:04:54.371Z,100.00
2022-11-02T06:06:58.037Z,100.00
2022-11-02T06:09:06.706Z,100.00
2022-11-02T06:11:13.789Z,100.00
2022-11-02T06:13:17.430Z,100.00
2022-11-02T06:15:20.649Z,100.00
2022-11-02T06:17:24.078Z,100.00
2022-11-02T06:19:27.300Z,100.00
2022-11-02T06:21:30.601Z,100.00
2022-11-02T06:23:34.506Z,100.00
2022-11-02T06:25:37.864Z,100.00
2022-11-02T06:27:45.903Z,100.00
2022-11-02T06:29:50.196Z,100.00
2022-11-02T06:31:54.308Z,100.00
2022-11-02T06:33:57.705Z,100.00
2022-11-02T06:36:01.134Z,100.00
2022-11-02T06:38:04.546Z,100.00
2022-11-02T06:40:08.701Z,100.00
2022-11-02T06:42:12.009Z,100.00
2022-11-02T06:44:16.722Z,100.00
2022-11-02T06:46:20.106Z,100.00
2022-11-02T06:48:26.515Z,100.00
2022-11-02T06:50:31.928Z,100.00
2022-11-02T06:52:35.323Z,100.00
2022-11-02T06:54:38.602Z,100.00
2022-11-02T06:56:41.984Z,100.00
2022-11-02T06:58:45.373Z,100.00
2022-11-02T07:00:50.479Z,99.88
2022-11-02T07:03:01.138Z,99.32
2022-11-02T07:05:04.826Z,99.01
2022-11-02T07:07:08.440Z,98.36
2022-11-02T07:09:12.015Z,97.97
2022-11-02T07:11:16.408Z,97.17
2022-11-02T07:13:20.195Z,96.85
2022-11-02T07:15:25.141Z,96.56
2022-11-02T07:17:32.282Z,97.26
2022-11-02T07:19:35.765Z,97.32
2022-11-02T07:21:41.342Z,97.31
2022-11-02T07:23:46.959Z,96.95
2022-11-02T07:25:50.185Z,96.97
2022-11-02T07:27:53.623Z,96.89
2022-11-02T07:29:58.322Z,96.59
2022-11-02T07:32:01.629Z,96.65
2022-11-02T07:34:06.330Z,96.66
2022-11-02T07:36:10.209Z,96.59
2022-11-02T07:38:13.477Z,96.14
2022-11-02T07:40:16.971Z,96.08
2022-11-02T07:42:20.430Z,95.71
2022-11-02T07:44:26.737Z,95.70
2022-11-02T07:46:29.999Z,95.68
2022-11-02T07:48:33.303Z,95.96
2022-11-02T07:50:38.062Z,96.61
2022-11-02T07:52:48.628Z,96.92
2022-11-02T07:54:51.980Z,96.86
2022-11-02T07:56:55.215Z,96.85
2022-11-02T07:58:58.632Z,96.59
2022-11-02T08:01:02.878Z,96.94
2022-11-02T08:03:08.637Z,97.67
2022-11-02T08:05:12.347Z,98.61
2022-11-02T08:07:17.191Z,98.74
2022-11-02T08:09:20.485Z,99.64
2022-11-02T08:11:23.823Z,99.86
2022-11-02T08:13:27.186Z,100.00
2022-11-02T08:15:30.622Z,100.00
2022-11-02T08:17:34.685Z,100.00
2022-11-02T08:19:38.752Z,100.00
2022-11-02T08:21:42.408Z,100.00
2022-11-02T08:23:47.381Z,100.00
2022-11-02T08:25:52.508Z,100.00
2022-11-02T08:27:58.722Z,100.00
2022-11-02T08:30:02.289Z,100.00
2022-11-02T08:32:06.161Z,100.00
2022-11-02T08:34:09.962Z,100.00
2022-11-02T08:36:13.909Z,100.00
2022-11-02T08:38:18.736Z,100.00
2022-11-02T08:40:24.328Z,100.00
2022-11-02T08:42:28.121Z,100.00
2022-11-02T08:44:31.755Z,100.00
2022-11-02T08:46:35.463Z,100.00
2022-11-02T08:48:39.250Z,100.00
2022-11-02T08:50:43.103Z,100.00
2022-11-02T08:52:46.647Z,100.00
2022-11-02T08:54:50.270Z,100.00
2022-11-02T08:56:55.526Z,100.00
2022-11-02T08:58:59.535Z,100.00
2022-11-02T09:01:03.090Z,100.00
2022-11-02T09:03:08.898Z,100.00
2022-11-02T09:05:12.601Z,100.00
2022-11-02T09:07:16.431Z,100.00
2022-11-02T09:09:20.649Z,100.00
2022-11-02T09:11:25.424Z,100.00
2022-11-02T09:13:31.031Z,100.00
2022-11-02T09:15:36.515Z,100.00
2022-11-02T09:17:40.222Z,99.46
2022-11-02T09:19:49.344Z,98.66
2022-11-02T09:21:52.958Z,98.28
2022-11-02T09:23:56.518Z,97.32
2022-11-02T09:26:00.867Z,97.05
2022-11-02T09:28:04.749Z,96.62
2022-11-02T09:30:11.484Z,96.50
2022-11-02T09:32:15.326Z,96.33
2022-11-02T09:34:19.274Z,97.15
2022-11-02T09:36:23.007Z,97.59
2022-11-02T09:38:27.231Z,97.24
2022-11-02T09:40:36.704Z,97.12
2022-11-02T09:42:47.279Z,97.18
2022-11-02T09:44:55.426Z,97.46
2022-11-02T09:47:40.411Z,98.07
2022-11-02T09:49:27.861Z,98.22
2022-11-02T09:51:37.163Z,98.71
2022-11-02T09:53:49.879Z,98.43
2022-11-02T09:55:56.290Z,98.49
2022-11-02T09:58:05.390Z,98.80
2022-11-02T10:00:15.693Z,98.67
2022-11-02T10:02:31.765Z,98.93
2022-11-02T10:05:04.313Z,98.69
2022-11-02T10:07:18.272Z,98.67
2022-11-02T10:09:29.512Z,98.95
2022-11-02T10:11:46.399Z,98.21
2022-11-02T10:13:57.102Z,98.57
2022-11-02T10:16:06.596Z,99.18
2022-11-02T10:18:19.521Z,99.48
2022-11-02T10:20:28.078Z,100.00
2022-11-02T10:22:38.173Z,100.00
2022-11-02T10:24:44.768Z,100.00
2022-11-02T10:26:50.702Z,100.00
2022-11-02T10:29:00.460Z,100.00
2022-11-02T10:31:04.929Z,100.00
2022-11-02T10:33:17.212Z,100.00
2022-11-02T10:35:41.199Z,100.00
2022-11-02T10:38:08.087Z,100.00
2022-11-02T10:40:24.324Z,100.00
2022-11-02T10:42:54.234Z,99.85
2022-11-02T10:45:19.946Z,100.00
2022-11-02T10:47:25.956Z,100.00
2022-11-02T10:50:08.096Z,100.00
2022-11-02T10:52:17.918Z,100.00
2022-11-02T10:54:25.360Z,100.00
2022-11-02T10:56:37.231Z,100.00
2022-11-02T10:58:46.340Z,100.00
2022-11-02T11:00:52.378Z,100.00
2022-11-02T11:03:11.163Z,100.00
2022-11-02T11:05:20.505Z,100.00
2022-11-02T11:07:28.727Z,100.00
2022-11-02T11:09:42.858Z,100.00
2022-11-02T11:11:59.940Z,100.00
2022-11-02T11:16:41.354Z,100.00
2022-11-02T11:21:10.824Z,100.00
2022-11-02T11:23:21.737Z,100.00
2022-11-02T11:25:28.377Z,100.00
2022-11-02T11:27:32.284Z,100.00
2022-11-02T11:29:39.252Z,100.00
2022-11-02T11:31:42.861Z,100.00
2022-11-02T11:33:50.687Z,100.00
2022-11-02T11:35:55.067Z,100.00
2022-11-02T11:38:04.969Z,100.00
2022-11-02T11:40:20.935Z,100.00
2022-11-02T11:42:28.015Z,100.00
2022-11-02T11:44:32.473Z,100.00
2022-11-02T11:46:44.207Z,100.00
2022-11-02T11:48:51.460Z,100.00
2022-11-02T11:50:55.136Z,100.00
2022-11-02T11:53:19.574Z,100.00
2022-11-02T11:55:26.268Z,100.00
2022-11-02T11:57:32.516Z,100.00
2022-11-02T11:59:48.234Z,100.00
2022-11-02T12:01:56.498Z,100.00
2022-11-02T12:04:02.521Z,100.00
2022-11-02T12:06:18.102Z,100.00
2022-11-02T12:08:48.211Z,100.00
2022-11-02T12:11:06.531Z,100.00
2022-11-02T12:13:21.937Z,100.00
2022-11-02T12:15:40.953Z,100.00
2022-11-02T12:18:00.947Z,100.00
2022-11-02T12:20:47.333Z,100.00
2022-11-02T12:23:00.099Z,100.00
2022-11-02T12:25:32.981Z,100.00
2022-11-02T12:27:47.825Z,100.00
2022-11-02T12:30:12.561Z,100.00
2022-11-02T12:32:29.933Z,100.00
2022-11-02T12:35:02.864Z,100.00
2022-11-02T12:37:39.195Z,100.00
2022-11-02T12:39:58.536Z,100.00
2022-11-02T12:42:20.250Z,100.00
2022-11-02T12:44:42.622Z,100.00
2022-11-02T12:46:57.622Z,99.99
2022-11-02T12:49:26.954Z,99.28
2022-11-02T12:51:35.583Z,98.73
2022-11-02T12:53:48.051Z,98.69
2022-11-02T12:55:55.340Z,98.69
2022-11-02T12:58:06.883Z,99.10
2022-11-02T13:00:19.978Z,98.66
2022-11-02T13:02:30.810Z,97.48
2022-11-02T13:04:43.316Z,96.02
2022-11-02T13:06:50.024Z,96.07
2022-11-02T13:08:58.579Z,95.28
2022-11-02T13:11:08.095Z,94.12
2022-11-02T13:13:18.256Z,92.76
2022-11-02T13:15:25.217Z,92.44
2022-11-02T13:17:37.132Z,91.55
2022-11-02T13:19:43.661Z,92.23
2022-11-02T13:21:55.565Z,91.61
2022-11-02T13:24:01.742Z,91.35
2022-11-02T13:26:09.506Z,90.94
2022-11-02T13:28:19.833Z,90.09
2022-11-02T13:30:23.842Z,89.09
2022-11-02T13:32:38.203Z,88.64
2022-11-02T13:34:45.120Z,88.03
2022-11-02T13:36:48.792Z,88.09
2022-11-02T13:39:00.688Z,87.33
2022-11-02T13:41:21.514Z,87.02
2022-11-02T13:43:53.293Z,84.92
2022-11-02T13:46:11.081Z,83.28
2022-11-02T13:48:41.780Z,81.95
2022-11-02T13:50:51.935Z,82.51
2022-11-02T13:53:00.816Z,82.31
2022-11-02T13:55:06.816Z,81.08
2022-11-02T13:57:33.580Z,81.33
2022-11-02T13:59:43.183Z,81.70
2022-11-02T14:01:48.265Z,82.19
2022-11-02T14:04:01.383Z,82.29
2022-11-02T14:06:13.483Z,81.77
2022-11-02T14:08:27.268Z,82.13
2022-11-02T14:10:35.484Z,81.05
2022-11-02T14:12:44.931Z,82.28
2022-11-02T14:15:28.236Z,81.21
2022-11-02T14:17:51.965Z,81.60
2022-11-02T14:19:56.545Z,81.76
2022-11-02T14:22:14.272Z,81.16
2022-11-02T14:25:06.997Z,81.24
2022-11-02T14:27:31.777Z,79.71
2022-11-02T14:29:49.731Z,80.29
2022-11-02T14:32:03.586Z,79.86
2022-11-02T14:34:31.242Z,79.74
2022-11-02T14:36:51.908Z,78.88
2022-11-02T14:39:11.602Z,79.87
2022-11-02T14:41:33.100Z,78.88
2022-11-02T14:43:58.089Z,77.17
2022-11-02T14:46:14.075Z,77.86
2022-11-02T14:48:19.281Z,79.03
2022-11-02T14:50:23.421Z,78.43
2022-11-02T14:52:30.050Z,78.28
2022-11-02T14:54:39.075Z,77.77
2022-11-02T14:56:51.889Z,76.82
2022-11-02T14:58:59.272Z,77.27
2022-11-02T15:01:06.069Z,77.74
2022-11-02T15:03:33.780Z,76.54
2022-11-02T15:05:39.913Z,76.58
2022-11-02T15:07:52.152Z,76.42
2022-11-02T15:09:59.109Z,76.56
2022-11-02T15:12:21.941Z,76.04
2022-11-02T15:14:55.367Z,75.42
2022-11-02T15:16:59.858Z,75.56
2022-11-02T15:19:44.132Z,75.20
2022-11-02T15:21:47.949Z,75.72
2022-11-02T15:23:57.532Z,75.16
2022-11-02T15:26:06.650Z,74.92
2022-11-02T15:28:16.660Z,74.81
2022-11-02T15:30:26.951Z,75.75
2022-11-02T15:32:39.769Z,74.76
2022-11-02T15:34:49.577Z,73.74
2022-11-02T15:36:53.196Z,72.54
2022-11-02T15:38:58.029Z,72.86
2022-11-02T15:41:13.811Z,72.66
2022-11-02T15:43:49.741Z,71.62
2022-11-02T15:46:08.319Z,70.73
2022-11-02T15:48:28.005Z,69.61
2022-11-02T15:50:47.602Z,70.42
2022-11-02T15:55:37.996Z,70.88
2022-11-02T15:57:48.785Z,71.25
2022-11-02T16:00:08.251Z,71.50
2022-11-02T16:02:24.135Z,72.01
2022-11-02T16:04:27.934Z,72.70
2022-11-02T16:06:36.965Z,72.98
2022-11-02T16:08:40.847Z,73.33
2022-11-02T16:10:45.333Z,73.50
2022-11-02T16:12:48.938Z,72.88
2022-11-02T16:14:59.150Z,72.34
2022-11-02T16:17:02.863Z,72.89
2022-11-02T16:19:06.497Z,73.52
2022-11-02T16:21:14.746Z,73.70
2022-11-02T16:23:24.483Z,73.64
2022-11-02T16:25:38.639Z,73.56
2022-11-02T16:27:44.710Z,73.00
2022-11-02T16:29:49.994Z,73.07
2022-11-02T16:31:53.862Z,73.05
2022-11-02T16:33:59.358Z,72.93
2022-11-02T16:36:03.492Z,72.54
2022-11-02T16:38:07.741Z,72.46
2022-11-02T16:40:19.928Z,72.33
2022-11-02T16:42:25.253Z,72.32
2022-11-02T16:44:31.370Z,72.41
2022-11-02T16:46:50.895Z,72.58
2022-11-02T16:49:14.179Z,71.99
2022-11-02T16:51:20.469Z,72.11
2022-11-02T16:53:30.442Z,72.06
2022-11-02T16:55:41.833Z,72.60
2022-11-02T16:57:47.347Z,72.77
2022-11-02T16:59:55.089Z,71.62
2022-11-02T17:02:03.229Z,71.15
2022-11-02T17:04:22.802Z,71.51
2022-11-02T17:06:26.506Z,71.84
2022-11-02T17:08:33.388Z,72.05
2022-11-02T17:10:40.635Z,72.05
2022-11-02T17:12:45.869Z,72.47
2022-11-02T17:14:51.637Z,72.77
2022-11-02T17:17:05.128Z,72.91
2022-11-02T17:19:46.957Z,72.60
2022-11-02T17:22:06.854Z,73.16
2022-11-02T17:24:32.540Z,73.85
2022-11-02T17:26:39.472Z,74.14
2022-11-02T17:28:45.570Z,73.78
2022-11-02T17:30:49.636Z,74.09
2022-11-02T17:32:53.445Z,74.08
2022-11-02T17:34:59.268Z,73.86
2022-11-02T17:37:03.058Z,74.27
2022-11-02T17:39:06.859Z,74.21
2022-11-02T17:41:34.319Z,74.30
2022-11-02T17:43:39.428Z,73.85
2022-11-02T17:45:42.873Z,73.91
2022-11-02T17:47:46.894Z,74.14
2022-11-02T17:49:50.633Z,74.08
2022-11-02T17:51:54.405Z,74.61
2022-11-02T17:53:58.307Z,74.72
2022-11-02T17:56:02.033Z,74.76
2022-11-02T17:58:08.133Z,74.51
2022-11-02T18:00:15.250Z,74.72
2022-11-02T18:02:18.848Z,74.73
2022-11-02T18:04:22.738Z,74.02
2022-11-02T18:06:26.501Z,74.25
2022-11-02T18:08:30.911Z,74.61
2022-11-02T18:10:38.253Z,74.76
2022-11-02T18:12:41.980Z,75.18
2022-11-02T18:14:46.118Z,75.60
2022-11-02T18:16:53.022Z,75.69
2022-11-02T18:18:56.755Z,75.39
2022-11-02T18:21:00.288Z,75.27
2022-11-02T18:23:04.664Z,75.31
2022-11-02T18:25:11.782Z,75.11
2022-11-02T18:27:15.583Z,75.30
2022-11-02T18:29:19.308Z,75.17
2022-11-02T18:31:24.947Z,75.27
2022-11-02T18:33:30.149Z,74.73
2022-11-02T18:35:33.730Z,75.04
2022-11-02T18:37:37.971Z,74.82
2022-11-02T18:39:41.928Z,74.99
2022-11-02T18:41:45.798Z,73.84
2022-11-02T18:43:50.028Z,74.30
2022-11-02T18:46:21.057Z,73.98
2022-11-02T18:48:39.506Z,74.17
2022-11-02T18:50:44.141Z,74.27
2022-11-02T18:52:49.960Z,74.71
2022-11-02T18:54:53.864Z,74.55
2022-11-02T18:56:58.059Z,75.34
2022-11-02T18:59:02.268Z,75.65
2022-11-02T19:01:10.778Z,76.50
2022-11-02T19:03:17.638Z,76.99
2022-11-02T19:05:40.496Z,77.48
2022-11-02T19:08:01.910Z,78.25
2022-11-02T19:10:07.349Z,78.59
2022-11-02T19:12:18.476Z,79.13
2022-11-02T19:14:23.996Z,79.68
2022-11-02T19:16:28.152Z,80.03
2022-11-02T19:18:32.031Z,80.41
2022-11-02T19:20:37.205Z,81.17
2022-11-02T19:22:41.957Z,81.21
2022-11-02T19:24:46.790Z,81.36
2022-11-02T19:26:52.070Z,81.94
2022-11-02T19:29:01.391Z,82.25
2022-11-02T19:31:09.720Z,82.90
2022-11-02T19:33:13.864Z,83.09
2022-11-02T19:35:18.372Z,83.66
2022-11-02T19:37:24.020Z,84.36
2022-11-02T19:39:31.872Z,84.49
2022-11-02T19:41:40.064Z,85.61
2022-11-02T19:43:49.421Z,86.18
2022-11-02T19:46:02.622Z,87.02
2022-11-02T19:48:07.383Z,88.61
2022-11-02T19:50:11.431Z,89.17
2022-11-02T19:52:15.607Z,89.36
2022-11-02T19:54:31.942Z,89.84
2022-11-02T19:56:41.016Z,90.05
2022-11-02T19:58:54.530Z,90.89
2022-11-02T20:01:10.066Z,91.03
2022-11-02T20:03:18.948Z,91.79
2022-11-02T20:05:24.269Z,93.01
2022-11-02T20:07:28.957Z,93.25
2022-11-02T20:09:34.720Z,93.65
2022-11-02T20:11:42.527Z,94.72
2022-11-02T20:13:47.861Z,94.83
2022-11-02T20:15:52.227Z,95.43
2022-11-02T20:18:17.764Z,95.66
2022-11-02T20:20:21.531Z,96.94
2022-11-02T20:22:25.881Z,97.74
2022-11-02T20:24:29.657Z,98.10
2022-11-02T20:26:36.983Z,98.85
2022-11-02T20:28:44.909Z,99.86
2022-11-02T20:30:48.880Z,100.00
2022-11-02T20:32:53.157Z,100.00
2022-11-02T20:34:58.123Z,100.00
2022-11-02T20:37:03.117Z,100.00
2022-11-02T20:39:07.933Z,100.00
2022-11-02T20:41:15.355Z,100.00
2022-11-02T20:43:21.133Z,100.00
2022-11-02T20:45:29.069Z,100.00
2022-11-02T20:47:35.121Z,100.00
2022-11-02T20:49:54.939Z,100.00
2022-11-02T20:51:59.781Z,100.00
2022-11-02T20:54:04.919Z,100.00
2022-11-02T20:56:12.095Z,100.00
2022-11-02T20:58:18.085Z,100.00
2022-11-02T21:00:26.158Z,100.00
2022-11-02T21:02:31.316Z,100.00
2022-11-02T21:04:35.710Z,100.00
2022-11-02T21:06:40.480Z,100.00
2022-11-02T21:08:45.652Z,100.00
2022-11-02T21:10:58.005Z,100.00
2022-11-02T21:13:20.077Z,100.00
2022-11-02T21:15:26.395Z,100.00
2022-11-02T21:17:30.962Z,100.00
2022-11-02T21:19:36.041Z,100.00
2022-11-02T21:21:40.805Z,100.00
2022-11-02T21:23:45.252Z,100.00
2022-11-02T21:25:50.228Z,100.00
2022-11-02T21:27:56.538Z,100.00
2022-11-02T21:30:00.956Z,100.00
2022-11-02T21:32:08.807Z,100.00
2022-11-02T21:34:13.625Z,100.00
2022-11-02T21:36:20.767Z,100.00
2022-11-02T21:38:27.938Z,100.00
2022-11-02T21:40:33.736Z,100.00
2022-11-02T21:42:38.952Z,100.00
2022-11-02T21:44:44.711Z,100.00
2022-11-02T21:46:49.435Z,100.00
2022-11-02T21:48:57.440Z,100.00
2022-11-02T21:51:04.179Z,100.00
2022-11-02T21:53:09.009Z,100.00
2022-11-02T21:55:13.656Z,100.00
2022-11-02T21:57:17.935Z,100.00
2022-11-02T21:59:22.154Z,100.00
2022-11-02T22:01:45.850Z,100.00
2022-11-02T22:03:50.628Z,100.00
2022-11-02T22:05:56.601Z,100.00
2022-11-02T22:08:18.187Z,100.00
2022-11-02T22:10:23.136Z,100.00
2022-11-02T22:12:44.655Z,100.00
2022-11-02T22:14:48.366Z,100.00
2022-11-02T22:16:52.510Z,100.00
2022-11-02T22:18:58.824Z,100.00
2022-11-02T22:21:04.955Z,100.00
2022-11-02T22:23:09.102Z,100.00
2022-11-02T22:25:13.301Z,100.00
2022-11-02T22:27:17.482Z,100.00
2022-11-02T22:29:22.489Z,100.00
2022-11-02T22:31:28.597Z,100.00
2022-11-02T22:33:32.451Z,100.00
2022-11-02T22:35:38.065Z,100.00
2022-11-02T22:38:01.095Z,100.00
2022-11-02T22:40:05.615Z,100.00
2022-11-02T22:42:09.303Z,100.00
2022-11-02T22:44:14.677Z,100.00
2022-11-02T22:46:18.416Z,100.00
2022-11-02T22:48:22.321Z,100.00
2022-11-02T22:50:27.882Z,100.00
2022-11-02T22:52:31.930Z,100.00
2022-11-02T22:54:37.168Z,100.00
2022-11-02T22:56:41.199Z,100.00
2022-11-02T22:58:46.066Z,100.00
2022-11-02T23:00:49.659Z,100.00
2022-11-02T23:02:53.619Z,100.00
2022-11-02T23:04:57.308Z,100.00
2022-11-02T23:07:01.227Z,100.00
2022-11-02T23:09:05.514Z,100.00
2022-11-02T23:11:23.140Z,100.00
2022-11-02T23:13:27.404Z,100.00
2022-11-02T23:15:31.644Z,100.00
2022-11-02T23:17:35.448Z,100.00
2022-11-02T23:19:38.516Z,100.00
2022-11-02T23:21:44.538Z,100.00
2022-11-02T23:24:05.898Z,100.00
2022-11-02T23:26:11.064Z,100.00
2022-11-02T23:28:32.423Z,100.00
2022-11-02T23:30:55.276Z,100.00
2022-11-02T23:33:02.702Z,100.00
2022-11-02T23:35:25.238Z,100.00
2022-11-02T23:37:29.639Z,100.00
2022-11-02T23:39:51.785Z,100.00
2022-11-02T23:41:57.143Z,100.00
2022-11-02T23:44:14.188Z,100.00
2022-11-02T23:46:18.173Z,100.00
2022-11-02T23:48:22.014Z,100.00
2022-11-02T23:50:44.217Z,100.00
2022-11-02T23:53:07.425Z,100.00
2022-11-02T23:55:31.953Z,100.00
2022-11-02T23:57:36.967Z,100.00
2022-11-02T23:59:41.131Z,100.00
